»·PEaware :: XOJ250 KMOT-KCID

XOJ250 :: KMOT-KCID

FLIGHT INFORMATION

Flight Status: Arrived
Operator:
XOJET
More flights by this operator :: More flights under this callsign
Pilot: Andrew J. (13363)
Aircraft: BOMBARDIER BD-100 CHALLENGER 300
(CL30)
More flights by this aircraft type
Origin: KMOT Minot Intl
United States
Destination: KCID The Eastern Iowa Airport
United States
More flights between these airports :: More routes between these airports
Route: WILTN MCW CAPPR
File this flight plan on PilotEdge
Remarks: PBN / D1 NAV / RNVD1E2A1 DOF / 180418 REG / N350SB EET / KZAU0055 OPR / TWY PER / C RMK / TCAS SIMBRIEF
Altitude:
(Current/Filed)
41,000ft
Speed:
(Current/Filed)
477kts
Departed: 18-Apr-18 03:55 PM
Arrived: 18-Apr-18 05:16 PM
Distance/Time
Traveled:
557nm/1:21
Distance/Time
To Go:
Arrived

Flight Plot

Page will automatically refresh every two minutes.

Flight plan parsing failed; only flown route is shown


Map Options




Map Legend


Flown Route
Filed Route
Departure Airport
Arrival Airport
Navaid (VOR, NDB)
Fix

Horizontal Profiles

Position Reports

Time Latitude Longitude Heading Altitude Ground
Speed
18-Apr-18 15:53 47.886923 -101.123038 164 20925ft 387kts
18-Apr-18 15:54 47.782351 -101.079968 164 23467ft 404kts
18-Apr-18 15:55 47.672980 -101.034859 166 25881ft 413kts
18-Apr-18 15:56 47.563080 -100.989856 168 28486ft 407kts
18-Apr-18 15:57 47.472853 -100.953186 167 30233ft 407kts
18-Apr-18 15:58 47.359347 -100.907012 167 31270ft 430kts
18-Apr-18 15:59 47.270250 -100.792814 122 32353ft 458kts
18-Apr-18 16:00 47.198749 -100.635950 126 33490ft 469kts
18-Apr-18 16:01 47.122209 -100.478584 126 34558ft 478kts
18-Apr-18 16:02 47.044217 -100.320991 127 35518ft 486kts
18-Apr-18 16:03 46.963766 -100.159739 128 36245ft 497kts
18-Apr-18 16:04 46.883135 -99.999066 128 37527ft 492kts
18-Apr-18 16:05 46.802931 -99.840201 128 38903ft 484kts
18-Apr-18 16:06 46.724047 -99.684853 129 40273ft 475kts
18-Apr-18 16:07 46.645909 -99.531839 129 41235ft 475kts
18-Apr-18 16:08 46.565268 -99.374819 129 41246ft 497kts
18-Apr-18 16:09 46.481607 -99.212780 129 41235ft 512kts
18-Apr-18 16:10 46.396613 -99.049109 129 41235ft 506kts
18-Apr-18 16:11 46.312456 -98.888009 129 41236ft 497kts
18-Apr-18 16:12 46.229709 -98.730520 129 41237ft 489kts
18-Apr-18 16:13 46.148063 -98.575985 129 41212ft 484kts
18-Apr-18 16:14 46.066930 -98.423260 129 41213ft 478kts
18-Apr-18 16:15 45.988473 -98.276361 130 41209ft 473kts
18-Apr-18 16:16 45.908641 -98.127683 130 41208ft 468kts
18-Apr-18 16:17 45.829632 -97.981300 130 41209ft 463kts
18-Apr-18 16:18 45.751264 -97.836861 130 41210ft 460kts
18-Apr-18 16:19 45.672932 -97.693215 130 41211ft 456kts
18-Apr-18 16:20 45.595229 -97.551448 130 41189ft 454kts
18-Apr-18 16:21 45.517635 -97.410583 130 41188ft 452kts
18-Apr-18 16:22 45.441201 -97.272505 131 41181ft 451kts
18-Apr-18 16:23 45.363516 -97.132860 131 41182ft 450kts
18-Apr-18 16:24 45.285841 -96.993934 131 41183ft 450kts
18-Apr-18 16:25 45.207918 -96.855223 131 41185ft 451kts
18-Apr-18 16:26 45.129786 -96.716822 131 41186ft 453kts
18-Apr-18 16:27 45.050755 -96.577513 131 41187ft 455kts
18-Apr-18 16:28 44.971486 -96.438467 131 41188ft 458kts
18-Apr-18 16:29 44.894888 -96.304751 132 41182ft 460kts
18-Apr-18 16:30 44.819862 -96.174393 132 41182ft 461kts
18-Apr-18 16:31 44.739200 -96.034902 132 41183ft 462kts
18-Apr-18 16:32 44.658209 -95.895525 132 41184ft 464kts
18-Apr-18 16:33 44.576616 -95.755798 132 41185ft 465kts
18-Apr-18 16:34 44.494353 -95.615612 132 41186ft 467kts
18-Apr-18 16:35 44.411606 -95.475290 131 41187ft 469kts
18-Apr-18 16:36 44.330850 -95.339006 132 41158ft 471kts
18-Apr-18 16:37 44.250417 -95.203907 132 41155ft 471kts
18-Apr-18 16:38 44.166848 -95.064217 132 41156ft 472kts
18-Apr-18 16:39 44.082915 -94.924595 132 41157ft 472kts
18-Apr-18 16:40 43.999284 -94.786148 132 41158ft 473kts
18-Apr-18 16:41 43.914395 -94.646298 132 41159ft 474kts
18-Apr-18 16:42 43.831187 -94.509893 132 41183ft 474kts
18-Apr-18 16:43 43.745437 -94.370007 132 40331ft 495kts
18-Apr-18 16:44 43.655584 -94.224116 132 38741ft 505kts
18-Apr-18 16:45 43.564520 -94.077096 130 37194ft 505kts
18-Apr-18 16:46 43.474204 -93.931935 129 35614ft 502kts
18-Apr-18 16:47 43.384095 -93.787798 128 34029ft 496kts
18-Apr-18 16:48 43.294839 -93.645338 132 32435ft 488kts
18-Apr-18 16:49 43.207437 -93.507205 132 30866ft 471kts
18-Apr-18 16:50 43.124487 -93.376829 128 29528ft 444kts
18-Apr-18 16:51 43.034414 -93.268541 138 28223ft 436kts
18-Apr-18 16:52 42.939686 -93.168089 139 26942ft 427kts
18-Apr-18 16:53 42.862027 -93.086991 139 25862ft 419kts
18-Apr-18 16:54 42.772305 -92.990715 131 24551ft 406kts
18-Apr-18 16:55 42.693028 -92.881612 130 22883ft 408kts
18-Apr-18 16:56 42.613683 -92.771986 129 21180ft 407kts
18-Apr-18 16:57 42.535119 -92.663662 129 19479ft 402kts
18-Apr-18 16:58 42.457586 -92.557115 128 17767ft 393kts
18-Apr-18 16:59 42.381765 -92.453248 128 16049ft 382kts
18-Apr-18 17:00 42.308435 -92.353184 128 14339ft 370kts
18-Apr-18 17:01 42.237643 -92.256928 129 12662ft 357kts
18-Apr-18 17:02 42.168974 -92.163871 129 10975ft 344kts
18-Apr-18 17:03 42.104797 -92.077245 129 9817ft 307kts
18-Apr-18 17:04 42.047620 -92.000217 129 8759ft 278kts
18-Apr-18 17:05 41.994789 -91.928987 134 7459ft 263kts
18-Apr-18 17:06 41.944402 -91.861569 134 6180ft 260kts
18-Apr-18 17:07 41.895710 -91.793100 112 4903ft 257kts
18-Apr-18 17:08 41.888327 -91.700299 91 3497ft 251kts
18-Apr-18 17:09 41.887370 -91.609918 69 2663ft 223kts
18-Apr-18 17:10 41.924765 -91.552447 42 2681ft 201kts
18-Apr-18 17:11 41.911536 -91.502829 197 2694ft 194kts
18-Apr-18 17:12 41.879715 -91.553334 278 2705ft 187kts
18-Apr-18 17:13 41.883045 -91.623993 273 1974ft 189kts
18-Apr-18 17:14 41.885227 -91.684750 274 1028ft 130kts
18-Apr-18 17:15 41.885881 -91.717266 269 854ft 39kts
18-Apr-18 17:16 41.887231 -91.716548 90 856ft 14kts
18-Apr-18 17:17 41.887146 -91.708662 90 860ft 29kts
18-Apr-18 17:18 41.887752 -91.704253 314 863ft 8kts
18-Apr-18 17:19 41.889635 -91.704609 2 863ft 15kts
18-Apr-18 17:20 41.890343 -91.704357 312 863ft 0kts
18-Apr-18 17:21 41.890343 -91.704357 312 863ft 0kts
18-Apr-18 17:22 41.890343 -91.704357 312 863ft 0kts
18-Apr-18 17:23 41.890343 -91.704357 312 863ft 0kts
18-Apr-18 17:24 41.890343 -91.704357 312 863ft 0kts
18-Apr-18 17:25 41.890343 -91.704357 312 863ft 0kts
18-Apr-18 17:26 41.890343 -91.704357 312 863ft 0kts

Navigation Log

Ident Type
Flight plan parsing failed, navigation log unavailable